This is the latest recevied weather packets stored in our database for station/object N2RDT. If no packets are shown the sender has not sent any weather packets the latest 1 day(s).
| Time | Temp. | Humidity | Pressure | Rain* | Wind** | Luminosity | Snow |
|---|---|---|---|---|---|---|---|
| 1777964801 | 15.56° C | 67% | 1015.6 hPa | 0 mm | 0.89 m/s, 101° | 0 W/m² | - |
| 1777964497 | 15.56° C | 67% | 1015.6 hPa | 0 mm | 3.13 m/s, 133° | 0 W/m² | - |
| 1777964193 | 15.56° C | 66% | 1015.6 hPa | 0 mm | 1.34 m/s, 112° | 0 W/m² | - |
| 1777963890 | 15.56° C | 66% | 1015.6 hPa | 0 mm | 0.89 m/s, 99° | 0 W/m² | - |
| 1777963587 | 15.56° C | 66% | 1015.6 hPa | 0 mm | 1.34 m/s, 108° | 0 W/m² | - |
| 1777963285 | 15.56° C | 65% | 1015.5 hPa | 0 mm | 1.34 m/s, 99° | 0 W/m² | - |
| 1777962982 | 16.11° C | 65% | 1015.6 hPa | 0 mm | 1.34 m/s, 115° | 0 W/m² | - |
| 1777962678 | 16.11° C | 65% | 1015.6 hPa | 0 mm | 1.79 m/s, 126° | 0 W/m² | - |
| 1777962375 | 16.11° C | 64% | 1015.6 hPa | 0 mm | 1.34 m/s, 109° | 0 W/m² | - |
| 1777962072 | 16.11° C | 64% | 1015.7 hPa | 0 mm | 2.68 m/s, 135° | 0 W/m² | - |
| 1777961769 | 16.11° C | 63% | 1015.5 hPa | 0 mm | 0.89 m/s, 87° | 0 W/m² | - |
| 1777961468 | 16.11° C | 64% | 1015.5 hPa | 0 mm | 1.34 m/s, 127° | 0 W/m² | - |
| 1777961165 | 16.11° C | 64% | 1015.7 hPa | 0 mm | 2.24 m/s, 123° | 0 W/m² | - |
| 1777960861 | 16.67° C | 63% | 1015.6 hPa | 0 mm | 1.79 m/s, 115° | 0 W/m² | - |
| 1777960556 | 16.67° C | 63% | 1015.7 hPa | 0 mm | 1.79 m/s, 112° | 0 W/m² | - |
| 1777960253 | 16.67° C | 63% | 1015.6 hPa | 0 mm | 1.79 m/s, 109° | 0 W/m² | - |
| 1777959950 | 16.67° C | 63% | 1015.5 hPa | 0 mm | 1.79 m/s, 105° | 0 W/m² | - |
| 1777959649 | 16.67° C | 63% | 1015.5 hPa | 0 mm | 0.89 m/s, 148° | 0 W/m² | - |
| 1777959345 | 16.67° C | 62% | 1015.7 hPa | 0 mm | 3.13 m/s, 131° | 0 W/m² | - |
| 1777959042 | 16.67° C | 63% | 1015.7 hPa | 0 mm | 2.24 m/s, 102° | 0 W/m² | - |
| 1777958739 | 16.67° C | 62% | 1015.8 hPa | 0 mm | 2.24 m/s, 111° | 0 W/m² | - |
| 1777958437 | 16.67° C | 63% | 1015.8 hPa | 0 mm | 1.79 m/s, 119° | 0 W/m² | - |
| 1777958133 | 16.67° C | 62% | 1015.7 hPa | 0 mm | 1.79 m/s, 119° | 0 W/m² | - |
| 1777957831 | 16.67° C | 63% | 1015.7 hPa | 0 mm | 0.89 m/s, 98° | 0 W/m² | - |
| 1777957529 | 16.67° C | 62% | 1015.8 hPa | 0 mm | 2.24 m/s, 80° | 0 W/m² | - |
* Rain latest hour (hover to see other rain measurements)
** Current wind speed in m/s (hover to see current wind gust speed)